Kasumigaura Air Base, Japan

10:59 AM JST on July 31, 2014 (GMT +0900)
Hyakuri Aero (RJAH) Elev 115 ft | 36.18 °N, 140.41 °E | Change Station

Current weather conditions updated 59 minutes ago

Scattered Clouds
Scattered Clouds
86 °F
Feels Like 93 °F
N
8
Wind Variable Wind from SSW

Today is forecast to be Warmer than yesterday.

Today
High -- | Low -- °F
--% Chance of Precip.
Yesterday
High -- | Low -- °F
Precip. -- in
4:45 AM 6:45 PM
Waxing Crescent, 15% visible
Pressure 29.95 in
Visibility 6.2 miles
Clouds Few 1500 ft
Scattered Clouds 2000 ft
Heat Index 93 °F
Dew Point 73 °F
Humidity 66%
Rainfall 0.00 in
Snow Depth Not available.
UV 7 out of 12
Pollen Not available.
Air Quality Not available.
Flu Activity Not available.
METAR RJAH 310100Z 21007KT 160V240 9999 FEW015 SCT020 30/23 Q1014

More Conditions Fewer Conditions

Pressure 29.95 in
Visibility 6.2 miles
Clouds Few 1500 ft
Scattered Clouds 2000 ft
Heat Index 93 °F
Dew Point 73 °F
Humidity 66%
Rainfall 0.00 in
Snow Depth Not available.
UV 7 out of 12
Pollen Not available.
Air Quality Not available.
Flu Activity Not available.
METAR RJAH 310100Z 21007KT 160V240 9999 FEW015 SCT020 30/23 Q1014

More Conditions Fewer Conditions

10-Day Weather Forecast

Almanac

Astronomy

Jul. 31, 2014 Rise Set
Actual Time 4:45 AM JST 6:45 PM JST
Civil Twilight 4:16 AM JST 7:13 PM JST
Nautical Twilight 3:42 AM JST 7:48 PM JST
Astronomical Twilight 3:05 AM JST 8:25 PM JST
Moon 8:28 AM JST 8:48 PM JST
Length of Visible Light 14h 57m
Length of Day
14h 00m
Tomorrow will be 1m 39s shorter.
Waxing Crescent, 15% of the Moon is Illuminated
Jul 30
Waxing Crescent
Aug 3
First Quarter
Aug 10
Full
Aug 17
Last Quarter
Aug 25
New

Yesterday's Extremes

Country Highs Country Lows

Community

WunderPhotos

Upload Photos

1,739,264 photos uploaded!

Nearby

Snow Depth

Not available.

Earthquake Activity

City Distance Mag. Time & Date
No recent earthquake activity has been reported nearby.
Minimum magnitude displayed is 2.5.

Coastal Water Temperatures

Place Temperature
No Stations Reporting

Nearby Weather Stations

Station Location Temp. Heat Index Dew Point Humidity Wind Precip. Elev Updated Type
Funabashi, Funabashi 90.7 °F 102 °F 75 °F 61% ENE  at  3.0 mph 0.00 in / hr 92 ft 10:59 AM JST Rapid Fire

Show More Stations Show Fewer Stations